Time;durP1;ratioP1;P1;durP2;ratioP2;P2;SDS_P1;SDS_P2;PMS_P1;PMS_P2;Temp;Humidity;BMP_temperature;BMP_pressure;BME280_temperature;BME280_humidity;BME280_pressure;Samples;Min_cycle;Max_cycle;Signal;HPM_P1;HPM_P2
2022/03/12 00:00:00;;;;;;;28.45;16.15;;;;;;;-146.64;54.70;39198.63;5060846;28;20056;-77
2022/03/12 00:02:32;;;;;;;27.52;17.20;;;;;;;-146.64;55.52;39169.97;5044272;28;20041;-77
2022/03/12 00:04:58;;;;;;;29.63;15.50;;;;;;;-146.64;55.43;39182.25;5029688;28;20033;-77
2022/03/12 00:07:27;;;;;;;28.20;16.53;;;;;;;-146.64;55.71;39182.25;5049606;28;20036;-78
2022/03/12 00:09:53;;;;;;;23.83;15.98;;;;;;;-146.64;56.73;39206.81;5057281;28;20520;-77
2022/03/12 00:12:19;;;;;;;36.20;16.98;;;;;;;-146.64;57.28;39188.38;5052961;28;20028;-78
2022/03/12 00:14:48;;;;;;;29.88;16.08;;;;;;;-146.64;58.36;39212.94;5042623;28;20036;-77
2022/03/12 00:17:18;;;;;;;25.60;15.45;;;;;;;-146.64;59.28;39153.59;5057163;28;20496;-77
2022/03/12 00:19:43;;;;;;;26.92;15.38;;;;;;;-146.64;60.11;39178.16;5053944;28;20472;-77
2022/03/12 00:22:10;;;;;;;27.25;16.40;;;;;;;-146.64;61.36;39198.63;5040098;28;20024;-77
2022/03/12 00:24:38;;;;;;;29.35;15.65;;;;;;;-146.64;62.43;39169.97;5067818;28;20021;-77
2022/03/12 00:27:04;;;;;;;29.02;15.40;;;;;;;-146.64;63.09;39215.00;5052581;28;20021;-78
2022/03/12 00:29:29;;;;;;;27.80;16.25;;;;;;;-146.64;63.00;39215.00;5055673;28;20071;-78
2022/03/12 00:31:55;;;;;;;26.00;15.63;;;;;;;-146.64;63.74;39176.09;5035585;28;20048;-77
2022/03/12 00:34:21;;;;;;;30.17;15.80;;;;;;;-146.64;64.26;39157.69;5039663;28;20025;-77
2022/03/12 00:36:47;;;;;;;27.20;14.95;;;;;;;-146.64;64.73;39241.59;5053667;28;20127;-77
2022/03/12 00:39:14;;;;;;;27.98;13.85;;;;;;;-146.64;65.56;39188.38;5054196;28;20035;-77
2022/03/12 00:41:42;;;;;;;28.58;15.32;;;;;;;-146.64;65.82;39190.44;5036494;28;20052;-77
2022/03/12 00:44:09;;;;;;;27.33;15.52;;;;;;;-146.64;67.71;39194.53;5042644;28;20043;-77
2022/03/12 00:46:34;;;;;;;26.13;16.45;;;;;;;-146.64;69.20;39198.63;5060502;28;20040;-77
2022/03/12 00:49:00;;;;;;;30.90;16.33;;;;;;;-146.64;69.20;39206.81;5066234;28;20415;-78
2022/03/12 00:51:25;;;;;;;25.55;16.48;;;;;;;-146.64;69.32;39204.75;5053928;28;20035;-77
2022/03/12 00:53:50;;;;;;;26.77;14.90;;;;;;;-146.64;70.60;39120.84;5054956;28;20166;-77
2022/03/12 00:56:16;;;;;;;28.67;14.23;;;;;;;-146.64;70.07;39251.84;5055213;28;20524;-78
2022/03/12 00:58:45;;;;;;;33.15;16.45;;;;;;;-146.64;70.27;39257.97;5062404;28;20111;-78
2022/03/12 01:01:11;;;;;;;27.52;15.63;;;;;;;-146.64;70.53;39264.09;5053177;28;20035;-78
2022/03/12 01:03:36;;;;;;;32.57;16.00;;;;;;;-146.64;72.04;39260.00;5059204;28;20053;-78
2022/03/12 01:06:04;;;;;;;28.65;16.38;;;;;;;-146.64;72.65;39262.06;5054717;28;20021;-78
2022/03/12 01:08:30;;;;;;;25.92;16.45;;;;;;;-146.64;73.34;39251.84;5066650;28;20476;-77
2022/03/12 01:10:58;;;;;;;26.48;15.52;;;;;;;-146.64;73.62;39311.19;5055229;28;20060;-78
2022/03/12 01:13:24;;;;;;;23.67;14.82;;;;;;;-146.64;74.15;39300.94;5054067;28;20028;-77
2022/03/12 01:15:49;;;;;;;23.50;14.70;;;;;;;-146.64;74.29;39313.22;5038508;28;20044;-77
2022/03/12 01:18:18;;;;;;;25.33;15.65;;;;;;;-146.64;74.79;39300.94;5054795;28;20061;-77
2022/03/12 01:20:44;;;;;;;29.00;15.77;;;;;;;-146.64;75.39;39305.03;5036970;28;20124;-77
2022/03/12 01:23:13;;;;;;;23.90;15.75;;;;;;;-146.64;75.93;39300.94;5055997;28;20064;-77
2022/03/12 01:25:40;;;;;;;29.00;15.38;;;;;;;-146.64;75.89;39325.50;5071519;28;20035;-78
2022/03/12 01:28:07;;;;;;;25.48;15.48;;;;;;;-146.64;76.41;39313.22;5038827;28;20036;-77
2022/03/12 01:30:34;;;;;;;23.77;14.40;;;;;;;-146.64;76.25;39255.94;5063673;28;20036;-77
2022/03/12 01:32:59;;;;;;;26.98;15.63;;;;;;;-146.64;77.22;39333.69;5056321;28;20070;-77
2022/03/12 01:35:25;;;;;;;26.38;15.10;;;;;;;-146.64;76.96;39360.31;5056367;28;20290;-77
2022/03/12 01:37:50;;;;;;;25.35;14.75;;;;;;;-146.64;77.18;39329.59;5073353;28;20032;-77
2022/03/12 01:40:16;;;;;;;26.33;16.70;;;;;;;-146.64;78.54;39362.34;5062560;28;20025;-77
2022/03/12 01:42:43;;;;;;;27.17;14.20;;;;;;;-146.64;78.93;39339.84;5059233;28;20025;-78
2022/03/12 01:45:10;;;;;;;;;;;;;;;-146.64;79.36;39345.97;5023772;28;20400;-77
2022/03/12 01:47:36;;;;;;;28.30;14.77;;;;;;;-146.64;79.79;39370.53;5063196;28;19916;-77
2022/03/12 01:50:02;;;;;;;26.47;15.50;;;;;;;-146.64;81.12;39399.19;5052871;28;20035;-77
2022/03/12 01:52:29;;;;;;;27.73;15.43;;;;;;;-146.64;82.29;39415.56;5054267;28;20025;-78
2022/03/12 01:54:55;;;;;;;24.02;14.43;;;;;;;-146.64;82.78;39446.25;5053240;28;20162;-77
2022/03/12 01:57:20;;;;;;;24.95;14.68;;;;;;;-146.64;83.35;39458.53;5060393;28;20036;-77
2022/03/12 01:59:46;;;;;;;21.15;14.40;;;;;;;-146.64;84.96;39472.88;5055036;28;20055;-77
2022/03/12 02:02:13;;;;;;;22.05;13.15;;;;;;;-146.64;85.93;39560.88;5034165;28;20025;-76
2022/03/12 02:04:39;;;;;;;21.75;14.50;;;;;;;-146.64;87.42;39546.53;5053086;28;20033;-76
2022/03/12 02:07:04;;;;;;;23.98;13.98;;;;;;;-146.64;87.84;39564.97;5038077;28;20091;-76
2022/03/12 02:09:31;;;;;;;28.58;14.65;;;;;;;-146.64;87.56;39538.34;5053169;28;20032;-76
2022/03/12 02:11:57;;;;;;;;;;;;;;;-146.64;87.73;39579.28;5053534;28;20025;-76
2022/03/12 02:14:25;;;;;;;21.33;13.98;;;;;;;-146.64;87.89;39556.78;5051970;28;19969;-76
2022/03/12 02:16:59;;;;;;;25.90;13.95;;;;;;;-146.64;88.34;39558.81;5034710;28;20043;-76
2022/03/12 02:19:26;;;;;;;30.63;14.77;;;;;;;-146.64;89.03;39624.31;5056587;28;20028;-76
2022/03/12 02:22:03;;;;;;;27.00;13.73;;;;;;;-146.64;89.37;39562.91;5051798;28;20025;-76
2022/03/12 02:24:32;;;;;;;25.47;14.17;;;;;;;-146.64;90.66;39614.09;5051642;28;20028;-76
2022/03/12 02:26:59;;;;;;;25.88;13.38;;;;;;;-146.64;92.42;39665.25;5048798;28;20278;-76
2022/03/12 02:29:25;;;;;;;24.55;13.10;;;;;;;-146.64;94.41;39722.56;5051522;28;20083;-76
2022/03/12 02:31:57;;;;;;;17.42;11.90;;;;;;;-146.64;98.98;39849.47;5042008;28;20108;-75
2022/03/12 02:34:29;;;;;;;15.80;11.02;;;;;;;-146.64;100.00;40074.63;5053473;28;20045;-76
2022/03/12 02:36:56;;;;;;;17.25;9.55;;;;;;;-146.64;100.00;40244.53;5049743;28;20124;-76
2022/03/12 02:39:22;;;;;;;15.10;9.25;;;;;;;-146.64;100.00;40563.91;5033456;28;20105;-75
2022/03/12 02:41:48;;;;;;;10.60;8.15;;;;;;;-146.64;100.00;40799.34;5063479;28;20060;-75
2022/03/12 02:44:22;;;;;;;11.67;8.10;;;;;;;-146.64;100.00;41020.47;5054973;28;20036;-75
2022/03/12 02:47:06;;;;;;;9.38;6.85;;;;;;;-146.64;100.00;41268.22;5059809;28;20285;-76
2022/03/12 02:49:37;;;;;;;11.10;7.35;;;;;;;-146.64;100.00;41583.56;5054759;28;20024;-76
2022/03/12 02:52:03;;;;;;;6.22;5.53;;;;;;;-146.64;100.00;41995.19;5035396;28;20036;-76
2022/03/12 02:54:28;;;;;;;7.97;5.55;;;;;;;-146.64;100.00;42175.41;5067025;28;20024;-76
2022/03/12 02:56:55;;;;;;;7.63;5.60;;;;;;;-146.64;100.00;42437.56;5056612;28;20029;-75
2022/03/12 02:59:20;;;;;;;6.13;5.13;;;;;;;-146.64;100.00;42894.34;5061598;28;20103;-75
2022/03/12 03:01:47;;;;;;;6.03;4.20;;;;;;;-146.64;100.00;43599.09;5051599;28;20071;-75
2022/03/12 03:04:12;;;;;;;6.00;4.82;;;;;;;-146.64;100.00;43760.94;5051039;28;20056;-76
2022/03/12 03:06:38;;;;;;;8.23;5.53;;;;;;;-146.64;100.00;43949.47;5057634;28;20408;-76
2022/03/12 03:09:04;;;;;;;6.20;5.10;;;;;;;-146.64;100.00;43756.84;5053634;28;20028;-76
2022/03/12 03:11:37;;;;;;;5.95;4.82;;;;;;;-146.64;100.00;44594.94;5058276;28;20472;-76
2022/03/12 03:14:04;;;;;;;6.80;5.22;;;;;;;-146.64;100.00;44924.91;5061137;28;20029;-76
2022/03/12 03:16:30;;;;;;;7.05;5.28;;;;;;;-146.64;100.00;44445.34;5065276;28;20376;-76
2022/03/12 03:18:56;;;;;;;5.82;4.82;;;;;;;-146.64;100.00;44172.81;5035879;28;20033;-75
2022/03/12 03:21:25;;;;;;;8.93;4.90;;;;;;;-146.64;100.00;45322.53;5056144;28;20126;-76
2022/03/12 03:23:51;;;;;;;6.55;4.78;;;;;;;-146.64;100.00;45318.44;5035212;28;20095;-75
2022/03/12 03:26:24;;;;;;;5.40;4.55;;;;;;;-146.64;100.00;45023.28;5058153;28;20024;-76
2022/03/12 03:28:49;;;;;;;7.68;4.47;;;;;;;-146.64;100.00;44400.25;5033759;28;20045;-76
2022/03/12 03:31:15;;;;;;;5.65;4.45;;;;;;;-146.64;100.00;43933.06;5055991;28;20158;-76
2022/03/12 03:33:40;;;;;;;5.93;4.90;;;;;;;-146.64;100.00;43916.66;5055272;28;20055;-76
2022/03/12 03:36:06;;;;;;;4.93;3.90;;;;;;;-146.64;100.00;43656.47;5037286;28;20025;-76
2022/03/12 03:38:31;;;;;;;6.75;4.15;;;;;;;-146.64;100.00;44256.81;5061689;28;20041;-75
2022/03/12 03:40:56;;;;;;;6.32;4.38;;;;;;;-146.64;100.00;44318.28;5053028;28;20029;-76
2022/03/12 03:43:23;;;;;;;7.50;4.20;;;;;;;-146.64;100.00;44918.75;5053813;28;20112;-76
2022/03/12 03:45:50;;;;;;;;;;;;;;;-146.64;100.00;46130.19;5040377;28;20024;-76
2022/03/12 03:48:17;;;;;;;7.35;4.85;;;;;;;-146.64;100.00;45650.50;5062276;28;19924;-75
2022/03/12 03:50:44;;;;;;;5.90;4.03;;;;;;;-146.64;100.00;46458.25;5036068;28;20534;-75
2022/03/12 03:53:11;;;;;;;5.18;3.78;;;;;;;-146.64;100.00;48053.72;5034492;28;20033;-75
2022/03/12 03:55:37;;;;;;;4.80;3.88;;;;;;;-146.64;100.00;47934.75;5044911;28;20029;-76
2022/03/12 03:58:03;;;;;;;7.50;4.13;;;;;;;-146.64;100.00;47897.81;5053766;28;20448;-76
2022/03/12 04:00:31;;;;;;;6.05;3.90;;;;;;;-146.64;100.00;50400.91;5052660;28;20029;-75
2022/03/12 04:03:02;;;;;;;6.97;4.18;;;;;;;-146.64;100.00;49635.47;5069556;28;20126;-75
2022/03/12 04:05:38;;;;;;;4.00;3.60;;;;;;;-146.64;100.00;51768.03;5059304;28;20029;-75
2022/03/12 04:08:06;;;;;;;4.70;4.13;;;;;;;-146.64;100.00;51061.81;5032353;28;20025;-76
2022/03/12 04:10:31;;;;;;;7.45;4.30;;;;;;;-146.64;100.00;51566.81;5050405;28;20106;-76
2022/03/12 04:12:58;;;;;;;5.97;3.92;;;;;;;-146.64;100.00;51823.44;5042957;28;20056;-75
2022/03/12 04:15:23;;;;;;;4.95;4.03;;;;;;;-146.64;100.00;50281.88;5061182;28;20548;-76
2022/03/12 04:17:53;;;;;;;5.15;3.92;;;;;;;-146.64;100.00;51028.97;5052363;28;20108;-76
2022/03/12 04:20:19;;;;;;;4.43;3.47;;;;;;;-146.64;100.00;51897.38;5054513;28;20551;-76
2022/03/12 04:22:50;;;;;;;4.23;3.33;;;;;;;-146.64;100.00;51386.16;5055502;28;20028;-76
2022/03/12 04:25:16;;;;;;;4.88;4.03;;;;;;;-146.64;100.00;51973.34;5042631;28;20021;-76
2022/03/12 04:27:42;;;;;;;3.65;3.33;;;;;;;-146.64;100.00;54004.44;5038192;28;20345;-75
2022/03/12 04:30:13;;;;;;;5.18;4.07;;;;;;;-146.64;100.00;55305.00;5039951;28;20360;-76
2022/03/12 04:32:39;;;;;;;4.07;3.60;;;;;;;-146.64;100.00;56883.47;5036713;28;20507;-76
2022/03/12 04:35:05;;;;;;;4.45;3.78;;;;;;;-146.64;100.00;56620.34;5042775;28;20480;-76
2022/03/12 04:37:32;;;;;;;4.85;3.92;;;;;;;-146.64;100.00;59252.38;5040619;28;20040;-76
2022/03/12 04:39:59;;;;;;;4.90;3.53;;;;;;;-146.64;100.00;60305.66;5024258;28;20060;-75
2022/03/12 04:42:24;;;;;;;4.30;3.85;;;;;;;-146.64;100.00;61359.25;5036827;28;20035;-75
2022/03/12 04:44:50;;;;;;;5.35;3.70;;;;;;;-146.64;100.00;61359.25;5069648;28;20033;-75
2022/03/12 04:47:19;;;;;;;4.38;3.65;;;;;;;-146.64;100.00;63203.69;5036477;28;20422;-76
2022/03/12 04:49:45;;;;;;;4.82;3.90;;;;;;;-146.64;100.00;64521.66;5068124;28;20028;-75
2022/03/12 04:52:11;;;;;;;7.38;4.53;;;;;;;-146.64;100.00;66367.56;5044926;28;20036;-76
2022/03/12 04:54:36;;;;;;;4.35;3.80;;;;;;;-146.64;100.00;66631.31;5049068;28;20028;-75
2022/03/12 04:57:02;;;;;;;5.80;4.10;;;;;;;-146.64;100.00;67950.44;5047340;28;20036;-76
2022/03/12 04:59:27;;;;;;;6.20;4.15;;;;;;;-146.64;100.00;68214.31;5055193;28;20044;-75
2022/03/12 05:01:53;;;;;;;9.52;4.35;;;;;;;-146.64;100.00;68214.31;5028573;28;20524;-76
2022/03/12 05:04:18;;;;;;;5.20;4.25;;;;;;;-146.64;100.00;67422.72;5033297;28;20190;-75
2022/03/12 05:06:44;;;;;;;7.55;4.63;;;;;;;-146.64;100.00;66895.09;5053273;28;20035;-76
2022/03/12 05:09:10;;;;;;;6.80;4.43;;;;;;;-146.64;100.00;65576.34;5055625;28;20426;-75
2022/03/12 05:11:38;;;;;;;5.97;4.25;;;;;;;-146.64;100.00;65576.34;5052357;28;20033;-75
2022/03/12 05:14:04;;;;;;;6.10;4.70;;;;;;;-146.64;100.00;65048.97;5041067;28;20115;-76
2022/03/12 05:16:30;;;;;;;7.53;4.63;;;;;;;-146.64;100.00;63467.22;5060940;28;20052;-75
2022/03/12 05:18:58;;;;;;;5.18;4.05;;;;;;;-146.64;100.00;65312.66;5065279;28;20532;-76
2022/03/12 05:21:24;;;;;;;9.05;4.68;;;;;;;-146.64;100.00;64521.66;5052331;28;20092;-75
2022/03/12 05:23:51;;;;;;;6.55;4.75;;;;;;;-146.64;100.00;64521.66;5047750;28;20043;-76
2022/03/12 05:26:16;;;;;;;7.35;4.70;;;;;;;-146.64;100.00;63203.69;5035769;28;20413;-76
2022/03/12 05:28:41;;;;;;;6.38;4.88;;;;;;;-146.64;100.00;66103.78;5056037;28;20043;-75
2022/03/12 05:31:09;;;;;;;6.25;4.38;;;;;;;-146.64;100.00;66367.56;5049206;28;20024;-75
2022/03/12 05:33:34;;;;;;;5.90;4.85;;;;;;;-146.64;100.00;66631.31;5053950;28;20025;-76
2022/03/12 05:36:03;;;;;;;9.25;5.32;;;;;;;-146.64;100.00;67422.72;5051941;28;20025;-76
2022/03/12 05:38:34;;;;;;;8.38;4.55;;;;;;;-146.64;100.00;69533.94;5034949;28;20025;-76
2022/03/12 05:41:00;;;;;;;5.70;4.68;;;;;;;-146.64;100.00;70589.97;5030891;28;20025;-76
2022/03/12 05:43:26;;;;;;;8.60;4.97;;;;;;;-146.64;100.00;71382.16;5030526;28;20033;-76
2022/03/12 05:45:52;;;;;;;5.05;4.38;;;;;;;-146.64;100.00;71382.16;5043492;28;20455;-76
2022/03/12 05:48:17;;;;;;;9.15;4.50;;;;;;;-146.64;100.00;71646.25;5050195;28;20025;-76
2022/03/12 05:50:45;;;;;;;6.18;4.72;;;;;;;-146.64;100.00;72702.84;5062202;28;20036;-76
2022/03/12 05:53:11;;;;;;;8.25;4.60;;;;;;;-146.64;100.00;72967.03;5042272;28;20507;-76
2022/03/12 05:55:40;;;;;;;7.30;4.43;;;;;;;-146.64;100.00;74552.53;5052284;28;20033;-76
2022/03/12 05:58:10;;;;;;;7.28;4.55;;;;;;;-146.64;100.00;75345.50;5033754;28;20388;-76
2022/03/12 06:00:36;;;;;;;7.55;4.25;;;;;;;-146.64;100.00;76931.94;5050051;28;20090;-76
2022/03/12 06:03:02;;;;;;;8.45;5.88;;;;;;;-146.64;100.00;77196.41;5049988;28;20052;-76
2022/03/12 06:05:28;;;;;;;5.97;4.60;;;;;;;-146.64;100.00;76138.66;5055063;28;20028;-76
2022/03/12 06:07:54;;;;;;;5.97;4.63;;;;;;;-146.64;100.00;74552.53;5045470;28;20025;-76
2022/03/12 06:10:23;;;;;;;6.77;5.10;;;;;;;-146.64;100.00;72174.50;5037792;28;20033;-76
2022/03/12 06:12:49;;;;;;;9.27;4.85;;;;;;;-146.64;100.00;71910.38;5035025;28;20103;-76
2022/03/12 06:15:17;;;;;;;7.93;5.82;;;;;;;-146.64;100.00;71382.16;5051411;28;20495;-76
2022/03/12 06:17:44;;;;;;;7.18;4.68;;;;;;;-146.64;100.00;70325.94;5029861;28;20033;-76
2022/03/12 06:20:10;;;;;;;;;;;;;;;-146.64;100.00;70061.91;5037041;28;20032;-76
2022/03/12 06:22:36;;;;;;;7.70;5.13;;;;;;;-146.64;100.00;69797.91;5065462;28;20318;-76
2022/03/12 06:25:02;;;;;;;7.20;4.60;;;;;;;-146.64;100.00;68742.09;5033589;28;20035;-76
2022/03/12 06:27:28;;;;;;;7.15;5.00;;;;;;;-146.64;100.00;68214.31;5024959;28;20033;-76
2022/03/12 06:29:53;;;;;;;12.85;5.75;;;;;;;-146.64;100.00;67158.91;5049013;28;20056;-76
2022/03/12 06:32:18;;;;;;;6.05;4.93;;;;;;;-146.64;100.00;66367.56;5038674;28;20092;-76
2022/03/12 06:34:44;;;;;;;7.50;4.50;;;;;;;-146.64;100.00;63730.81;5042746;28;20039;-76
2022/03/12 06:37:10;;;;;;;6.65;4.93;;;;;;;-146.64;100.00;62940.13;5048737;28;20036;-76
2022/03/12 06:39:36;;;;;;;9.02;4.30;;;;;;;-146.64;100.00;60305.66;5029881;28;20480;-76
2022/03/12 06:42:02;;;;;;;8.15;4.68;;;;;;;-146.64;100.00;56883.47;5051457;28;20533;-76
2022/03/12 06:44:32;;;;;;;12.75;5.55;;;;;;;-146.64;100.00;56620.34;5054436;28;20056;-76
2022/03/12 06:47:01;;;;;;;9.07;4.95;;;;;;;-146.64;100.00;54937.19;5055606;28;20040;-76
2022/03/12 06:49:28;;;;;;;10.88;4.43;;;;;;;-146.64;100.00;53357.41;5038521;28;20235;-76
2022/03/12 06:51:54;;;;;;;8.98;4.97;;;;;;;-146.64;100.00;50499.44;5054652;28;20495;-76
2022/03/12 06:54:19;;;;;;;7.67;5.00;;;;;;;-146.64;100.00;49186.09;5030321;28;20029;-76
2022/03/12 06:56:45;;;;;;;9.57;4.82;;;;;;;-146.64;100.00;46199.91;5055758;28;20029;-76
2022/03/12 06:59:11;;;;;;;12.63;5.72;;;;;;;-146.64;100.00;45162.66;5054042;28;20029;-76
2022/03/12 07:01:36;;;;;;;8.00;5.20;;;;;;;-146.64;100.00;43830.63;5051715;28;20039;-76
2022/03/12 07:04:02;;;;;;;10.70;5.40;;;;;;;-146.64;100.00;42816.50;5050062;28;20057;-76
2022/03/12 07:06:27;;;;;;;7.63;5.35;;;;;;;-146.64;100.00;42130.34;5027692;28;20153;-76
2022/03/12 07:08:53;;;;;;;8.60;5.15;;;;;;;-146.64;100.00;42159.03;5032825;28;20432;-76
2022/03/12 07:11:18;;;;;;;12.25;5.40;;;;;;;-146.64;100.00;42064.81;5059337;28;20056;-76
2022/03/12 07:13:44;;;;;;;9.43;4.80;;;;;;;-146.64;100.00;41749.44;5051117;28;20041;-76
2022/03/12 07:16:09;;;;;;;8.52;5.15;;;;;;;-146.64;100.00;41675.72;5052674;28;20051;-77
2022/03/12 07:18:35;;;;;;;11.38;5.45;;;;;;;-146.64;100.00;41389.03;5061000;28;20036;-76
2022/03/12 07:21:00;;;;;;;10.27;6.07;;;;;;;-146.64;100.00;41382.88;5055324;28;20094;-76
2022/03/12 07:23:26;;;;;;;13.32;5.53;;;;;;;-146.64;100.00;41284.59;5060479;28;20111;-77
2022/03/12 07:25:52;;;;;;;5.90;4.85;;;;;;;-146.64;100.00;41221.13;5052993;28;20063;-76
2022/03/12 07:28:19;;;;;;;8.38;5.97;;;;;;;-146.64;100.00;41034.78;5055746;28;20025;-76
2022/03/12 07:30:44;;;;;;;9.68;5.80;;;;;;;-146.64;100.00;40868.94;5059406;28;20056;-76
2022/03/12 07:33:10;;;;;;;8.23;5.25;;;;;;;-146.64;100.00;40844.38;5061310;28;20028;-76
2022/03/12 07:35:35;;;;;;;9.27;5.70;;;;;;;-146.64;100.00;40723.59;5059054;28;20086;-76
2022/03/12 07:38:01;;;;;;;9.80;5.70;;;;;;;-146.64;100.00;40680.59;5031440;28;20021;-75
2022/03/12 07:40:26;;;;;;;8.83;5.70;;;;;;;-146.64;100.00;40725.63;5044787;28;20119;-76
2022/03/12 07:42:51;;;;;;;7.93;5.60;;;;;;;-146.64;100.00;40656.03;5064709;28;20033;-75
2022/03/12 07:45:17;;;;;;;9.73;5.60;;;;;;;-146.64;100.00;40582.31;5059685;28;20024;-75
2022/03/12 07:47:42;;;;;;;7.47;5.05;;;;;;;-146.64;100.00;40606.88;5036464;28;20422;-75
2022/03/12 07:50:09;;;;;;;9.05;5.65;;;;;;;-146.64;100.00;40545.47;5062199;28;20037;-75
2022/03/12 07:52:34;;;;;;;10.77;7.00;;;;;;;-146.64;100.00;40557.75;5060222;28;20032;-75
2022/03/12 07:54:59;;;;;;;8.73;6.20;;;;;;;-146.64;100.00;40561.84;5053649;28;20031;-76
2022/03/12 07:57:28;;;;;;;9.63;5.90;;;;;;;-146.64;100.00;40471.78;5033060;28;20425;-75
2022/03/12 07:59:54;;;;;;;7.93;5.63;;;;;;;-146.64;100.00;40385.78;5066152;28;20529;-75
2022/03/12 08:02:20;;;;;;;13.05;5.68;;;;;;;-146.64;100.00;40336.66;5043970;28;20079;-74
2022/03/12 08:04:45;;;;;;;10.07;5.85;;;;;;;-146.64;100.00;40287.53;5032675;28;20058;-75
2022/03/12 08:07:10;;;;;;;10.82;6.18;;;;;;;-146.64;100.00;40222.03;5054548;28;20033;-75
2022/03/12 08:09:36;;;;;;;8.70;6.28;;;;;;;-146.64;100.00;40201.56;5053177;28;20032;-75
2022/03/12 08:12:01;;;;;;;10.52;5.32;;;;;;;-146.64;100.00;40119.66;5048269;28;20348;-75
2022/03/12 08:14:28;;;;;;;12.23;5.30;;;;;;;-146.64;100.00;40107.38;5034747;28;20059;-75
2022/03/12 08:16:54;;;;;;;10.55;6.00;;;;;;;-146.64;100.00;40099.19;5055693;28;20021;-75
2022/03/12 08:19:20;;;;;;;9.05;5.50;;;;;;;-146.64;100.00;40050.06;5056984;28;20036;-77
2022/03/12 08:21:46;;;;;;;11.57;5.72;;;;;;;-146.64;100.00;39996.84;5070256;28;20497;-76
2022/03/12 08:24:15;;;;;;;8.05;5.00;;;;;;;-146.64;100.00;39955.91;5058912;28;20060;-76
2022/03/12 08:26:44;;;;;;;7.95;4.88;;;;;;;-146.64;100.00;39943.63;5049924;28;20029;-76
2022/03/12 08:29:10;;;;;;;9.63;5.18;;;;;;;-146.64;100.00;39951.81;5031929;28;20029;-75
2022/03/12 08:31:37;;;;;;;12.00;5.15;;;;;;;-146.64;100.00;39955.91;5058575;28;20552;-76
2022/03/12 08:34:03;;;;;;;9.05;4.88;;;;;;;-146.64;100.00;39869.94;5064342;28;20515;-76
2022/03/12 08:36:28;;;;;;;14.67;4.83;;;;;;;-146.64;100.00;39847.44;5046860;28;20061;-76
2022/03/12 08:38:53;;;;;;;12.75;5.50;;;;;;;-146.64;100.00;39755.31;5051683;28;20035;-75
2022/03/12 08:41:21;;;;;;;12.07;5.53;;;;;;;-146.64;100.00;39644.78;5060778;28;20349;-76
2022/03/12 08:43:47;;;;;;;12.02;4.57;;;;;;;-146.64;100.00;39665.25;5054520;28;20550;-75
2022/03/12 08:46:12;;;;;;;12.30;4.78;;;;;;;-146.64;100.00;39665.25;5034592;28;20040;-75
2022/03/12 08:48:39;;;;;;;13.52;4.65;;;;;;;-146.64;100.00;39587.47;5054842;28;20463;-75
2022/03/12 08:51:05;;;;;;;10.90;5.10;;;;;;;-146.64;100.00;39562.91;5046899;28;20029;-75
2022/03/12 08:53:31;;;;;;;6.68;4.22;;;;;;;-146.64;100.00;39599.75;5042967;28;20043;-75
2022/03/12 08:55:59;;;;;;;8.80;3.90;;;;;;;-146.64;100.00;39515.84;5050621;28;20029;-75
2022/03/12 08:58:25;;;;;;;12.60;4.72;;;;;;;-146.64;100.00;39538.34;5043727;28;20033;-75
2022/03/12 09:00:54;;;;;;;7.53;3.75;;;;;;;-146.64;100.00;39454.44;5049323;28;20070;-75
2022/03/12 09:03:20;;;;;;;5.50;4.32;;;;;;;-146.64;100.00;39403.28;5042478;28;20041;-75
2022/03/12 09:05:46;;;;;;;10.67;4.63;;;;;;;-146.64;100.00;39370.53;5057584;28;20056;-76
2022/03/12 09:08:12;;;;;;;10.68;5.00;;;;;;;-146.64;100.00;39356.22;5048426;28;20031;-76
2022/03/12 09:10:38;;;;;;;7.80;5.40;;;;;;;-146.64;100.00;39313.22;5048137;28;20030;-76
2022/03/12 09:13:06;;;;;;;;;;;;;;;-146.64;100.00;39268.19;5032942;28;20050;-76
2022/03/12 09:15:32;;;;;;;15.38;5.00;;;;;;;-146.64;100.00;39284.56;5049180;28;20050;-75
2022/03/12 09:17:57;;;;;;;18.63;6.07;;;;;;;-146.64;100.00;39192.47;5052992;28;20510;-76
2022/03/12 09:20:23;;;;;;;13.18;5.15;;;;;;;-146.64;100.00;39196.56;5056688;28;20508;-76
2022/03/12 09:22:48;;;;;;;12.50;4.80;;;;;;;-146.64;100.00;39178.16;5036644;28;20060;-76
2022/03/12 09:25:14;;;;;;;7.30;4.40;;;;;;;-146.64;100.00;39141.31;5038271;28;20028;-75
2022/03/12 09:27:40;;;;;;;15.77;5.30;;;;;;;-146.64;100.00;39116.75;5050307;28;20025;-75
2022/03/12 09:30:06;;;;;;;9.57;5.80;;;;;;;-146.64;100.00;39075.84;5032673;28;20438;-75
2022/03/12 09:32:31;;;;;;;10.73;4.93;;;;;;;-146.64;100.00;39030.81;5040820;28;20385;-75
2022/03/12 09:34:56;;;;;;;7.70;4.57;;;;;;;-146.64;100.00;39002.16;5062697;28;20265;-75
2022/03/12 09:37:22;;;;;;;8.23;4.80;;;;;;;-146.64;100.00;39008.28;5034349;28;20028;-75
2022/03/12 09:39:47;;;;;;;11.27;5.30;;;;;;;-146.64;100.00;39092.19;5053565;28;20036;-75
2022/03/12 09:42:13;;;;;;;17.00;5.00;;;;;;;-146.64;100.00;39067.66;5028636;28;20052;-75
2022/03/12 09:44:38;;;;;;;9.87;5.27;;;;;;;-146.64;100.00;39026.72;5047468;28;20029;-76
2022/03/12 09:47:04;;;;;;;12.60;4.53;;;;;;;-146.64;100.00;39049.22;5033420;28;20025;-77
2022/03/12 09:49:29;;;;;;;7.97;4.70;;;;;;;-146.64;100.00;39008.28;5066194;28;20104;-75
2022/03/12 09:51:57;;;;;;;9.80;4.97;;;;;;;-146.64;100.00;38985.78;5052243;28;20108;-74
2022/03/12 09:54:22;;;;;;;11.90;5.07;;;;;;;-146.64;100.00;39014.44;5033827;28;20024;-75
2022/03/12 09:56:48;;;;;;;13.30;5.33;;;;;;;-146.64;100.00;39016.47;5050131;28;20047;-75
2022/03/12 09:59:13;;;;;;;9.20;4.33;;;;;;;-146.64;100.00;38959.19;5055297;28;20033;-75
2022/03/12 10:01:38;;;;;;;9.83;4.23;;;;;;;-146.64;100.00;39010.34;5057742;28;20105;-75
2022/03/12 10:04:04;;;;;;;7.37;4.33;;;;;;;-146.64;100.00;38991.94;5039003;28;20060;-75
2022/03/12 10:06:31;;;;;;;8.90;4.50;;;;;;;-146.64;100.00;38938.72;5048987;28;20118;-75
2022/03/12 10:08:56;;;;;;;10.43;4.97;;;;;;;-146.64;100.00;38887.56;5050595;28;20097;-75
2022/03/12 10:11:22;;;;;;;10.60;4.70;;;;;;;-146.64;100.00;38852.78;5038205;28;20033;-75
2022/03/12 10:13:47;;;;;;;10.52;6.65;;;;;;;-146.64;100.00;38742.28;5064675;28;20382;-76
2022/03/12 10:16:14;;;;;;;10.83;4.93;;;;;;;-146.64;100.00;38801.63;5068081;28;20555;-75
2022/03/12 10:18:40;;;;;;;11.87;4.83;;;;;;;-146.64;100.00;38791.38;5044818;28;20034;-75
2022/03/12 10:21:05;;;;;;;5.88;3.80;;;;;;;-146.64;100.00;38793.44;5068954;28;20265;-75
2022/03/12 10:23:36;;;;;;;14.13;4.50;;;;;;;-146.64;100.00;38768.88;5052220;28;20035;-75
2022/03/12 10:26:05;;;;;;;11.43;4.30;;;;;;;-146.64;100.00;38709.53;5043554;28;20025;-75
2022/03/12 10:28:34;;;;;;;9.60;4.18;;;;;;;-146.64;100.00;38707.47;5028616;28;20033;-75
2022/03/12 10:31:03;;;;;;;8.90;4.43;;;;;;;-146.64;97.53;38660.41;5057978;28;20035;-77
2022/03/12 10:33:29;;;;;;;9.23;4.35;;;;;;;-146.64;97.30;38674.75;5067800;28;20107;-78
2022/03/12 10:35:55;;;;;;;9.70;4.83;;;;;;;-146.64;96.85;38625.63;5071274;28;20103;-78
2022/03/12 10:38:22;;;;;;;10.80;6.17;;;;;;;-146.64;94.20;38654.28;5069511;28;20052;-78
2022/03/12 10:40:47;;;;;;;8.70;5.72;;;;;;;-146.64;95.36;38617.44;5055355;28;20487;-79
2022/03/12 10:43:13;;;;;;;12.00;5.97;;;;;;;-146.64;95.27;38660.41;5069607;28;20059;-78
2022/03/12 10:45:43;;;;;;;10.37;5.30;;;;;;;-146.64;93.94;38625.63;5069652;28;20119;-79
2022/03/12 10:48:09;;;;;;;10.20;5.97;;;;;;;-146.64;91.50;38613.34;5022755;28;20034;-79
2022/03/12 10:50:45;;;;;;;11.97;5.00;;;;;;;-146.64;88.91;38576.53;5061975;28;20635;-79
2022/03/12 10:53:12;;;;;;;9.50;5.13;;;;;;;-146.64;90.58;38568.34;5032618;28;20028;-79
2022/03/12 10:55:42;;;;;;;10.75;4.90;;;;;;;-146.64;89.05;38551.97;5046746;28;20480;-78
2022/03/12 10:58:07;;;;;;;6.55;4.35;;;;;;;-146.64;88.64;38621.53;5059725;28;20107;-79
2022/03/12 11:00:47;;;;;;;16.43;5.00;;;;;;;-146.64;90.56;38584.72;5070934;28;20103;-79
2022/03/12 11:03:19;;;;;;;7.30;5.32;;;;;;;-146.64;88.28;38564.25;5042771;28;20091;-79